createdAt,value
2023-04-26T00:00:51.290Z,4.30
2023-04-26T00:03:18.392Z,5.60
2023-04-26T00:05:45.468Z,4.80
2023-04-26T00:08:12.722Z,5.10
2023-04-26T00:10:40.920Z,4.33
2023-04-26T00:13:08.446Z,5.00
2023-04-26T00:15:35.313Z,5.30
2023-04-26T00:18:02.232Z,5.00
2023-04-26T00:20:29.158Z,4.50
2023-04-26T00:22:56.026Z,5.00
2023-04-26T00:25:22.874Z,4.87
2023-04-26T00:27:50.161Z,5.40
2023-04-26T00:30:17.030Z,5.30
2023-04-26T00:32:44.206Z,5.17
2023-04-26T00:35:11.270Z,4.63
2023-04-26T00:37:38.160Z,4.87
2023-04-26T00:40:06.536Z,4.90
2023-04-26T00:42:33.432Z,5.03
2023-04-26T00:45:00.252Z,4.13
2023-04-26T00:47:29.744Z,4.53
2023-04-26T00:49:56.897Z,4.53
2023-04-26T00:52:25.065Z,5.00
2023-04-26T00:54:53.439Z,4.83
2023-04-26T00:57:21.765Z,4.47
2023-04-26T00:59:48.847Z,4.33
2023-04-26T01:04:53.126Z,4.40
2023-04-26T01:07:20.069Z,4.83
2023-04-26T01:09:48.617Z,5.80
2023-04-26T01:12:15.580Z,4.73
2023-04-26T01:14:44.097Z,4.40
2023-04-26T01:17:11.118Z,5.50
2023-04-26T01:19:47.703Z,4.50
2023-04-26T01:22:14.553Z,4.40
2023-04-26T01:24:43.731Z,4.80
2023-04-26T01:27:10.683Z,4.70
2023-04-26T01:29:37.525Z,5.13
2023-04-26T01:32:04.607Z,4.70
2023-04-26T01:34:33.285Z,6.20
2023-04-26T01:37:00.860Z,5.30
2023-04-26T01:39:28.077Z,6.30
2023-04-26T01:41:58.699Z,5.37
2023-04-26T01:44:25.647Z,5.00
2023-04-26T01:46:52.536Z,5.90
2023-04-26T01:49:19.367Z,5.60
2023-04-26T01:51:46.209Z,5.10
2023-04-26T01:54:13.284Z,6.37
2023-04-26T01:56:40.150Z,5.47
2023-04-26T01:59:07.032Z,5.43
2023-04-26T02:01:33.978Z,6.00
2023-04-26T02:04:00.887Z,6.10
2023-04-26T02:06:28.179Z,5.93
2023-04-26T02:08:55.318Z,5.50
2023-04-26T02:11:23.315Z,5.80
2023-04-26T02:13:50.205Z,5.73
2023-04-26T02:16:17.186Z,5.50
2023-04-26T02:18:44.617Z,4.97
2023-04-26T02:21:12.485Z,5.30
2023-04-26T02:23:39.333Z,4.83
2023-04-26T02:26:06.869Z,5.17
2023-04-26T02:28:33.702Z,6.30
2023-04-26T02:31:02.157Z,6.03
2023-04-26T02:33:29.074Z,5.30
2023-04-26T02:35:56.021Z,5.03
2023-04-26T02:38:22.932Z,5.10
2023-04-26T02:40:49.776Z,6.60
2023-04-26T02:43:16.700Z,5.50
2023-04-26T02:45:44.150Z,5.10
2023-04-26T02:48:11.046Z,5.60
2023-04-26T02:50:37.938Z,6.23
2023-04-26T02:53:04.775Z,5.50
2023-04-26T02:55:31.600Z,4.87
2023-04-26T02:57:58.421Z,4.93
2023-04-26T03:00:25.396Z,5.57
2023-04-26T03:02:52.627Z,4.90
2023-04-26T03:05:20.223Z,5.20
2023-04-26T03:07:47.152Z,5.60
2023-04-26T03:10:13.995Z,5.80
2023-04-26T03:12:40.986Z,5.93
2023-04-26T03:15:08.200Z,6.00
2023-04-26T03:17:35.066Z,6.37
2023-04-26T03:20:02.895Z,5.90
2023-04-26T03:22:29.897Z,5.70
2023-04-26T03:24:57.209Z,6.53
2023-04-26T03:27:24.031Z,6.23
2023-04-26T03:29:51.053Z,7.20
2023-04-26T03:32:18.267Z,8.00
2023-04-26T03:34:45.168Z,6.50
2023-04-26T03:37:12.085Z,7.60
2023-04-26T03:39:38.868Z,6.73
2023-04-26T03:42:05.753Z,6.00
2023-04-26T03:44:32.650Z,5.93
2023-04-26T03:46:59.727Z,5.10
2023-04-26T03:49:26.568Z,5.07
2023-04-26T03:51:53.397Z,5.80
2023-04-26T03:54:20.256Z,5.70
2023-04-26T03:56:47.108Z,6.73
2023-04-26T03:59:14.022Z,6.37
2023-04-26T04:01:40.922Z,6.10
2023-04-26T04:04:08.235Z,5.90
2023-04-26T04:06:35.416Z,6.10
2023-04-26T04:09:02.289Z,6.20
2023-04-26T04:11:29.101Z,7.50
2023-04-26T04:13:56.037Z,5.87
2023-04-26T04:16:23.027Z,6.27
2023-04-26T04:18:50.126Z,6.60
2023-04-26T04:21:17.552Z,5.70
2023-04-26T04:23:44.576Z,7.00
2023-04-26T04:26:12.775Z,7.20
2023-04-26T04:28:41.731Z,6.37
2023-04-26T04:31:11.856Z,6.70
2023-04-26T04:33:39.023Z,6.60
2023-04-26T04:36:06.933Z,6.73
2023-04-26T04:38:33.864Z,5.83
2023-04-26T04:41:00.725Z,6.40
2023-04-26T04:43:28.093Z,6.30
2023-04-26T04:45:55.749Z,6.60
2023-04-26T04:48:22.687Z,6.83
2023-04-26T04:50:50.093Z,6.23
2023-04-26T04:53:17.502Z,5.60
2023-04-26T04:55:44.573Z,6.50
2023-04-26T04:58:11.419Z,7.83
2023-04-26T05:00:38.869Z,7.87
2023-04-26T05:03:05.864Z,6.27
2023-04-26T05:05:32.802Z,6.90
2023-04-26T05:07:59.634Z,6.97
2023-04-26T05:10:26.460Z,6.97
2023-04-26T05:12:53.287Z,6.47
2023-04-26T05:15:20.104Z,7.87
2023-04-26T05:17:47.059Z,7.93
2023-04-26T05:20:15.484Z,7.10
2023-04-26T05:22:42.437Z,7.43
2023-04-26T05:25:10.743Z,7.73
2023-04-26T05:27:37.939Z,7.60
2023-04-26T05:30:06.329Z,7.33
2023-04-26T05:32:33.290Z,6.30
2023-04-26T05:35:00.827Z,6.23
2023-04-26T05:37:27.661Z,6.83
2023-04-26T05:39:54.678Z,6.07
2023-04-26T05:42:21.743Z,6.53
2023-04-26T05:44:48.629Z,5.83
2023-04-26T05:47:15.473Z,6.27
2023-04-26T05:49:42.340Z,6.57
2023-04-26T05:52:09.216Z,6.17
2023-04-26T05:54:36.260Z,6.27
2023-04-26T05:57:03.762Z,6.50
2023-04-26T05:59:33.132Z,6.20
2023-04-26T06:02:00.096Z,6.07
2023-04-26T06:04:27.291Z,6.57
2023-04-26T06:06:54.318Z,6.67
2023-04-26T06:09:21.445Z,7.87
2023-04-26T06:11:48.271Z,5.80
2023-04-26T06:14:29.367Z,5.90
2023-04-26T06:16:58.227Z,6.77
2023-04-26T06:19:25.339Z,7.10
2023-04-26T06:21:57.374Z,6.83
2023-04-26T06:24:27.078Z,6.37
2023-04-26T06:26:54.024Z,6.17
2023-04-26T06:29:21.898Z,6.70
2023-04-26T06:31:48.869Z,6.20
2023-04-26T06:34:15.762Z,7.37
2023-04-26T06:36:42.590Z,7.10
2023-04-26T06:39:09.405Z,6.73
2023-04-26T06:41:36.226Z,6.33
2023-04-26T06:44:03.040Z,5.70
2023-04-26T06:46:29.955Z,5.83
2023-04-26T06:48:56.840Z,7.40
2023-04-26T06:51:23.737Z,6.70
2023-04-26T06:53:50.668Z,7.20
2023-04-26T06:56:18.906Z,5.87
2023-04-26T06:59:06.512Z,6.03
2023-04-26T07:01:35.217Z,6.60
2023-04-26T07:04:10.960Z,6.90
2023-04-26T07:06:39.494Z,6.07
2023-04-26T07:09:06.571Z,6.20
2023-04-26T07:11:33.410Z,5.07
2023-04-26T07:14:00.338Z,5.83
2023-04-26T07:16:27.464Z,6.00
2023-04-26T07:18:58.252Z,5.30
2023-04-26T07:21:26.923Z,6.20
2023-04-26T07:23:57.486Z,5.17
2023-04-26T07:26:25.337Z,5.23
2023-04-26T07:28:52.813Z,4.27
2023-04-26T07:31:22.651Z,4.47
2023-04-26T07:33:49.702Z,5.40
2023-04-26T07:36:16.583Z,5.37
2023-04-26T07:38:43.456Z,4.97
2023-04-26T07:41:10.492Z,4.80
2023-04-26T07:43:38.040Z,4.40
2023-04-26T07:46:05.025Z,4.60
2023-04-26T07:48:32.160Z,5.37
2023-04-26T07:51:08.130Z,4.20
2023-04-26T07:53:35.350Z,3.63
2023-04-26T07:56:05.266Z,4.03
2023-04-26T07:58:33.229Z,3.80
2023-04-26T08:01:00.793Z,3.50
2023-04-26T08:03:28.354Z,3.33
2023-04-26T08:05:56.391Z,2.70
2023-04-26T08:08:23.445Z,4.57
2023-04-26T08:10:50.270Z,4.97
2023-04-26T08:13:17.278Z,4.77
2023-04-26T08:15:44.619Z,4.43
2023-04-26T08:18:11.585Z,4.73
2023-04-26T08:20:39.201Z,4.20
2023-04-26T08:23:06.173Z,4.40
2023-04-26T08:25:34.981Z,5.10
2023-04-26T08:28:02.514Z,4.63
2023-04-26T08:30:29.739Z,4.83
2023-04-26T08:32:56.901Z,2.97
2023-04-26T08:35:23.902Z,3.33
2023-04-26T08:37:51.076Z,4.20
2023-04-26T08:40:25.053Z,2.93
2023-04-26T08:42:53.885Z,3.67
2023-04-26T08:45:21.713Z,3.27
2023-04-26T08:48:03.930Z,5.13
2023-04-26T08:50:33.749Z,3.70
2023-04-26T08:53:00.584Z,1.93
2023-04-26T08:55:27.721Z,1.70
2023-04-26T08:57:56.129Z,2.87
2023-04-26T09:00:23.662Z,2.00
2023-04-26T09:02:53.229Z,2.20
2023-04-26T09:05:24.962Z,2.30
2023-04-26T09:08:03.814Z,2.07
2023-04-26T09:10:32.368Z,1.80
2023-04-26T09:12:59.448Z,1.40
2023-04-26T09:15:27.868Z,1.87
2023-04-26T09:17:54.806Z,1.60
2023-04-26T09:20:27.900Z,1.67
2023-04-26T09:23:05.022Z,2.57
2023-04-26T09:25:32.811Z,1.80
2023-04-26T09:28:00.939Z,2.67
2023-04-26T09:30:28.890Z,2.67
2023-04-26T09:33:03.210Z,4.20
2023-04-26T09:35:33.956Z,2.60
2023-04-26T09:38:09.667Z,2.63
2023-04-26T09:40:42.038Z,2.73
2023-04-26T09:43:10.045Z,2.83
2023-04-26T09:45:57.518Z,2.97
2023-04-26T09:48:33.508Z,2.43
2023-04-26T09:51:12.182Z,2.10
2023-04-26T09:53:46.572Z,3.43
2023-04-26T09:56:19.111Z,2.07
2023-04-26T09:59:02.446Z,3.10
2023-04-26T10:01:30.600Z,2.70
2023-04-26T10:03:58.426Z,2.53
2023-04-26T10:06:28.755Z,2.67
2023-04-26T10:08:55.995Z,2.67
2023-04-26T10:11:24.811Z,2.73
2023-04-26T10:13:52.103Z,2.13
2023-04-26T10:16:20.855Z,1.97
2023-04-26T10:18:48.277Z,2.00
2023-04-26T10:21:28.902Z,1.83
2023-04-26T10:23:56.762Z,1.80
2023-04-26T10:26:53.520Z,2.87
2023-04-26T10:29:47.645Z,3.23
2023-04-26T10:32:18.189Z,2.10
2023-04-26T10:34:45.099Z,2.50
2023-04-26T10:37:14.342Z,2.63
2023-04-26T10:39:42.769Z,7.53
2023-04-26T10:42:27.806Z,2.03
2023-04-26T10:44:55.818Z,2.60
2023-04-26T10:47:25.432Z,2.83
2023-04-26T10:49:52.435Z,2.90
2023-04-26T10:52:22.733Z,2.80
2023-04-26T10:54:54.929Z,2.70
2023-04-26T10:57:23.377Z,2.97
2023-04-26T11:00:10.840Z,2.07
2023-04-26T11:02:54.368Z,2.03
2023-04-26T11:05:44.050Z,2.57
2023-04-26T11:08:20.920Z,4.27
2023-04-26T11:10:56.759Z,3.50
2023-04-26T11:13:23.596Z,2.33
2023-04-26T11:16:10.991Z,1.93
2023-04-26T11:18:40.837Z,1.70
2023-04-26T11:21:08.431Z,1.90
2023-04-26T11:23:36.701Z,1.60
2023-04-26T11:26:08.720Z,2.30
2023-04-26T11:28:39.499Z,2.80
2023-04-26T11:31:07.700Z,2.77
2023-04-26T11:33:34.645Z,2.30
2023-04-26T11:36:02.169Z,2.40
2023-04-26T11:38:29.572Z,2.90
2023-04-26T11:41:03.745Z,2.70
2023-04-26T11:43:35.846Z,2.23
2023-04-26T11:46:04.309Z,2.67
2023-04-26T11:48:32.380Z,3.17
2023-04-26T11:51:00.625Z,2.53
2023-04-26T11:53:38.434Z,2.30
2023-04-26T11:56:18.771Z,2.70
2023-04-26T11:58:50.874Z,2.80
2023-04-26T12:01:28.477Z,2.23
2023-04-26T12:03:57.668Z,2.90
2023-04-26T12:06:35.006Z,2.77
2023-04-26T12:09:05.672Z,2.67
2023-04-26T12:11:32.609Z,2.70
2023-04-26T12:13:59.993Z,2.73
2023-04-26T12:16:27.458Z,2.73
2023-04-26T12:18:57.124Z,2.40
2023-04-26T12:21:26.110Z,2.50
2023-04-26T12:23:53.815Z,3.30
2023-04-26T12:26:20.792Z,3.23
2023-04-26T12:28:47.801Z,2.97
2023-04-26T12:31:14.722Z,2.97
2023-04-26T12:33:41.812Z,2.87
2023-04-26T12:36:10.144Z,2.20
2023-04-26T12:38:37.511Z,2.80
2023-04-26T12:41:05.246Z,2.33
2023-04-26T12:43:32.241Z,3.27
2023-04-26T12:45:59.199Z,2.67
2023-04-26T12:48:26.323Z,2.70
2023-04-26T12:50:53.174Z,2.60
2023-04-26T12:53:20.259Z,2.70
2023-04-26T12:55:47.289Z,2.40
2023-04-26T12:58:14.352Z,2.90
2023-04-26T13:00:44.004Z,2.87
2023-04-26T13:03:14.883Z,3.00
2023-04-26T13:05:42.203Z,2.50
2023-04-26T13:08:09.231Z,2.73
2023-04-26T13:10:36.067Z,3.63
2023-04-26T13:13:02.958Z,2.40
2023-04-26T13:15:30.142Z,3.00
2023-04-26T13:17:57.150Z,2.70
2023-04-26T13:20:25.978Z,2.50
2023-04-26T13:22:54.054Z,2.73
2023-04-26T13:25:20.896Z,2.47
2023-04-26T13:27:47.743Z,3.10
2023-04-26T13:30:15.055Z,3.10
2023-04-26T13:32:41.949Z,2.63
2023-04-26T13:35:09.281Z,3.03
2023-04-26T13:37:36.367Z,3.43
2023-04-26T13:40:04.569Z,3.10
2023-04-26T13:42:32.637Z,3.17
2023-04-26T13:45:00.299Z,2.90
2023-04-26T13:47:28.163Z,3.10
2023-04-26T13:49:55.034Z,3.43
2023-04-26T13:52:21.930Z,2.90
2023-04-26T13:54:48.895Z,3.30
2023-04-26T13:57:16.139Z,2.90
2023-04-26T13:59:43.017Z,2.43
2023-04-26T14:02:10.724Z,2.37
2023-04-26T14:04:38.273Z,2.63
2023-04-26T14:07:05.998Z,2.70
2023-04-26T14:09:33.023Z,2.80
2023-04-26T14:12:07.914Z,2.97
2023-04-26T14:14:35.857Z,3.23
2023-04-26T14:17:02.674Z,3.10
2023-04-26T14:19:29.554Z,2.33
2023-04-26T14:21:56.385Z,2.93
2023-04-26T14:24:23.272Z,3.17
2023-04-26T14:26:50.237Z,2.80
2023-04-26T14:29:17.136Z,3.13
2023-04-26T14:31:44.251Z,3.20
2023-04-26T14:34:11.165Z,3.43
2023-04-26T14:36:38.051Z,2.97
2023-04-26T14:39:05.769Z,2.80
2023-04-26T14:41:32.660Z,3.10
2023-04-26T14:43:59.508Z,3.53
2023-04-26T14:46:26.446Z,2.70
2023-04-26T14:48:53.420Z,3.20
2023-04-26T14:51:20.234Z,2.60
2023-04-26T14:53:47.214Z,2.60
2023-04-26T14:56:14.064Z,3.23
2023-04-26T14:58:40.974Z,3.57
2023-04-26T15:01:08.226Z,3.97
2023-04-26T15:03:35.387Z,5.00
2023-04-26T15:06:02.341Z,2.87
2023-04-26T15:08:29.171Z,3.00
2023-04-26T15:10:56.116Z,3.30
2023-04-26T15:13:23.002Z,2.97
2023-04-26T15:15:49.921Z,3.10
2023-04-26T15:18:16.948Z,3.13
2023-04-26T15:20:43.910Z,3.33
2023-04-26T15:23:10.883Z,3.30
2023-04-26T15:25:37.834Z,3.67
2023-04-26T15:28:04.997Z,2.90
2023-04-26T15:30:31.904Z,3.40
2023-04-26T15:32:58.902Z,6.10
2023-04-26T15:35:25.881Z,3.70
2023-04-26T15:37:54.164Z,4.27
2023-04-26T15:40:24.828Z,3.33
2023-04-26T15:42:52.234Z,4.23
2023-04-26T15:45:22.313Z,3.40
2023-04-26T15:47:49.303Z,3.63
2023-04-26T15:50:16.300Z,3.20
2023-04-26T15:52:43.191Z,3.53
2023-04-26T15:55:10.659Z,4.30
2023-04-26T15:57:37.895Z,3.00
2023-04-26T16:00:08.529Z,3.33
2023-04-26T16:02:35.737Z,3.23
2023-04-26T16:05:02.982Z,4.90
2023-04-26T16:07:30.372Z,3.47
2023-04-26T16:09:57.198Z,3.97
2023-04-26T16:12:24.379Z,3.80
2023-04-26T16:14:52.078Z,3.10
2023-04-26T16:17:18.912Z,3.27
2023-04-26T16:19:46.048Z,3.10
2023-04-26T16:22:12.939Z,4.70
2023-04-26T16:24:40.251Z,3.63
2023-04-26T16:27:07.064Z,6.20
2023-04-26T16:29:33.932Z,4.00
2023-04-26T16:32:01.047Z,3.00
2023-04-26T16:34:28.324Z,3.80
2023-04-26T16:36:55.141Z,4.23
2023-04-26T16:39:21.960Z,3.20
2023-04-26T16:41:48.889Z,3.50
2023-04-26T16:44:16.899Z,4.50
2023-04-26T16:46:43.793Z,3.77
2023-04-26T16:49:11.040Z,3.43
2023-04-26T16:51:42.126Z,3.80
2023-04-26T16:54:08.945Z,3.13
2023-04-26T16:56:36.152Z,3.97
2023-04-26T16:59:02.967Z,3.80
2023-04-26T17:01:29.817Z,3.87
2023-04-26T17:03:57.272Z,3.67
2023-04-26T17:06:24.653Z,4.03
2023-04-26T17:08:51.600Z,4.00
2023-04-26T17:11:18.624Z,3.60
2023-04-26T17:13:45.558Z,3.47
2023-04-26T17:16:12.663Z,3.83
2023-04-26T17:18:39.533Z,3.87
2023-04-26T17:21:07.194Z,4.17
2023-04-26T17:23:34.622Z,4.53
2023-04-26T17:26:02.026Z,4.20
2023-04-26T17:28:29.069Z,3.17
2023-04-26T17:30:55.963Z,3.60
2023-04-26T17:33:23.238Z,3.73
2023-04-26T17:35:50.233Z,4.17
2023-04-26T17:38:17.371Z,3.40
2023-04-26T17:40:44.186Z,3.30
2023-04-26T17:43:11.534Z,3.73
2023-04-26T17:45:38.464Z,4.07
2023-04-26T17:48:05.790Z,3.90
2023-04-26T17:50:32.701Z,3.20
2023-04-26T17:52:59.620Z,3.77
2023-04-26T17:55:26.464Z,3.67
2023-04-26T17:57:53.321Z,3.53
2023-04-26T18:00:20.468Z,3.30
2023-04-26T18:02:47.688Z,3.40
2023-04-26T18:05:14.697Z,3.70
2023-04-26T18:07:42.077Z,3.90
2023-04-26T18:10:09.466Z,3.70
2023-04-26T18:12:36.806Z,3.27
2023-04-26T18:15:03.866Z,3.30
2023-04-26T18:17:30.966Z,2.83
2023-04-26T18:19:57.788Z,3.23
2023-04-26T18:22:24.640Z,3.77
2023-04-26T18:24:51.428Z,3.27
2023-04-26T18:27:18.396Z,3.70
2023-04-26T18:29:45.333Z,3.57
2023-04-26T18:32:12.705Z,3.00
2023-04-26T18:34:40.078Z,3.30
2023-04-26T18:37:07.242Z,2.87
2023-04-26T18:39:34.098Z,4.30
2023-04-26T18:42:01.316Z,3.80
2023-04-26T18:44:28.129Z,3.40
2023-04-26T18:46:56.066Z,3.70
2023-04-26T18:49:23.794Z,4.00
2023-04-26T18:51:50.653Z,3.40
2023-04-26T18:54:17.530Z,3.97
2023-04-26T18:56:45.085Z,4.50
2023-04-26T18:59:12.027Z,4.47
2023-04-26T19:01:38.960Z,3.97
2023-04-26T19:04:06.345Z,4.17
2023-04-26T19:06:33.590Z,3.90
2023-04-26T19:09:01.199Z,6.40
2023-04-26T19:11:28.061Z,7.67
2023-04-26T19:13:55.209Z,7.70
2023-04-26T19:16:22.463Z,6.90
2023-04-26T19:18:49.854Z,6.67
2023-04-26T19:21:16.885Z,5.37
2023-04-26T19:23:46.097Z,6.37
2023-04-26T19:26:13.688Z,7.43
2023-04-26T19:28:41.135Z,6.77
2023-04-26T19:31:08.334Z,6.87
2023-04-26T19:33:37.059Z,6.50
2023-04-26T19:36:04.098Z,6.13
2023-04-26T19:38:30.920Z,6.40
2023-04-26T19:40:57.845Z,7.77
2023-04-26T19:43:24.759Z,6.67
2023-04-26T19:45:51.587Z,7.33
2023-04-26T19:48:18.430Z,5.93
2023-04-26T19:50:46.455Z,6.13
2023-04-26T19:53:14.975Z,6.10
2023-04-26T19:55:42.534Z,5.77
2023-04-26T19:58:13.034Z,4.77
2023-04-26T20:00:40.681Z,4.20
2023-04-26T20:03:07.985Z,4.67
2023-04-26T20:05:35.123Z,4.60
2023-04-26T20:08:02.491Z,4.63
2023-04-26T20:10:34.443Z,5.30
2023-04-26T20:13:01.713Z,5.13
2023-04-26T20:15:30.438Z,5.20
2023-04-26T20:17:58.584Z,5.97
2023-04-26T20:20:25.686Z,8.40
2023-04-26T20:22:52.651Z,4.70
2023-04-26T20:25:20.069Z,4.57
2023-04-26T20:27:47.754Z,5.20
2023-04-26T20:30:15.317Z,6.40
2023-04-26T20:32:42.852Z,7.37
2023-04-26T20:35:10.235Z,6.00
2023-04-26T20:37:37.095Z,4.87
2023-04-26T20:40:04.795Z,5.50
2023-04-26T20:42:31.674Z,6.47
2023-04-26T20:45:00.501Z,4.67
2023-04-26T20:47:28.820Z,5.30
2023-04-26T20:49:55.794Z,8.67
2023-04-26T20:52:22.671Z,6.10
2023-04-26T20:54:49.516Z,5.50
2023-04-26T20:57:16.929Z,8.10
2023-04-26T20:59:43.794Z,5.40
2023-04-26T21:04:38.966Z,5.80
2023-04-26T21:07:06.128Z,6.20
2023-04-26T21:09:33.016Z,5.40
2023-04-26T21:11:59.873Z,5.67
2023-04-26T21:14:26.974Z,5.73
2023-04-26T21:16:53.969Z,6.00
2023-04-26T21:19:21.194Z,5.40
2023-04-26T21:21:48.134Z,6.10
2023-04-26T21:24:14.957Z,6.40
2023-04-26T21:26:41.755Z,5.53
2023-04-26T21:29:08.933Z,4.73
2023-04-26T21:31:36.002Z,5.33
2023-04-26T21:34:02.926Z,6.37
2023-04-26T21:36:30.115Z,5.70
2023-04-26T21:38:56.984Z,5.20
2023-04-26T21:41:25.998Z,6.47
2023-04-26T21:43:57.266Z,5.63
2023-04-26T21:46:24.313Z,5.73
2023-04-26T21:48:51.218Z,6.63
2023-04-26T21:51:20.063Z,5.03
2023-04-26T21:53:46.969Z,5.83
2023-04-26T21:56:14.925Z,5.03
2023-04-26T21:58:42.377Z,5.77
2023-04-26T22:01:14.415Z,5.20
2023-04-26T22:03:41.558Z,5.50
2023-04-26T22:06:09.645Z,5.60
2023-04-26T22:08:36.771Z,4.93
2023-04-26T22:11:03.733Z,5.43
2023-04-26T22:13:31.497Z,5.30
2023-04-26T22:15:58.540Z,5.70
2023-04-26T22:18:29.423Z,5.33
2023-04-26T22:20:56.410Z,6.30
2023-04-26T22:23:23.245Z,5.23
2023-04-26T22:25:50.086Z,5.30
2023-04-26T22:28:16.941Z,6.03
2023-04-26T22:30:43.944Z,5.30
2023-04-26T22:33:12.427Z,5.90
2023-04-26T22:35:39.631Z,5.60
2023-04-26T22:38:06.486Z,5.17
2023-04-26T22:40:33.401Z,5.80
2023-04-26T22:43:00.273Z,5.60
2023-04-26T22:45:27.224Z,5.40
2023-04-26T22:47:54.152Z,5.13
2023-04-26T22:50:21.210Z,5.80
2023-04-26T22:52:48.265Z,5.13
2023-04-26T22:55:15.174Z,4.80
2023-04-26T22:57:42.057Z,5.70
2023-04-26T23:00:10.290Z,4.67
2023-04-26T23:02:37.299Z,5.63
2023-04-26T23:05:05.488Z,5.10
2023-04-26T23:07:33.596Z,4.80
2023-04-26T23:10:00.660Z,5.43
2023-04-26T23:12:27.834Z,5.10
2023-04-26T23:15:00.788Z,5.13
2023-04-26T23:17:27.749Z,4.70
2023-04-26T23:19:54.668Z,5.97
2023-04-26T23:22:21.563Z,6.17
2023-04-26T23:24:48.433Z,5.30
2023-04-26T23:27:15.362Z,4.50
2023-04-26T23:29:42.177Z,4.93
2023-04-26T23:32:09.036Z,5.27
2023-04-26T23:34:35.977Z,5.10
2023-04-26T23:37:07.055Z,6.03
2023-04-26T23:39:36.244Z,6.00
2023-04-26T23:42:04.140Z,6.87
2023-04-26T23:44:31.133Z,5.10
2023-04-26T23:46:57.977Z,5.47
2023-04-26T23:49:25.031Z,5.47
2023-04-26T23:51:51.970Z,4.63
2023-04-26T23:54:18.822Z,5.57
2023-04-26T23:56:45.697Z,5.57
2023-04-26T23:59:13.055Z,5.73
